createdAt,value
2019-04-07T00:01:05.516Z,7.53
2019-04-07T00:03:33.456Z,6.90
2019-04-07T00:06:01.440Z,7.47
2019-04-07T00:08:29.658Z,7.43
2019-04-07T00:10:57.892Z,7.83
2019-04-07T00:13:25.923Z,7.23
2019-04-07T00:15:53.859Z,7.50
2019-04-07T00:18:22.365Z,7.57
2019-04-07T00:20:50.324Z,7.77
2019-04-07T00:23:18.239Z,7.80
2019-04-07T00:25:46.724Z,7.50
2019-04-07T00:28:14.639Z,7.20
2019-04-07T00:30:42.579Z,7.37
2019-04-07T00:33:11.273Z,8.37
2019-04-07T00:35:39.196Z,7.73
2019-04-07T00:38:07.396Z,7.20
2019-04-07T00:40:36.175Z,7.87
2019-04-07T00:43:04.520Z,6.70
2019-04-07T00:45:32.521Z,7.50
2019-04-07T00:48:00.493Z,6.77
2019-04-07T00:50:29.386Z,7.53
2019-04-07T00:52:57.367Z,7.33
2019-04-07T00:55:25.433Z,7.37
2019-04-07T00:57:53.399Z,7.33
2019-04-07T01:00:23.475Z,7.30
2019-04-07T01:02:51.870Z,7.73
2019-04-07T01:05:20.525Z,7.57
2019-04-07T01:07:48.799Z,6.73
2019-04-07T01:10:17.393Z,7.50
2019-04-07T01:12:45.784Z,7.30
2019-04-07T01:15:14.093Z,7.23
2019-04-07T01:17:42.367Z,7.10
2019-04-07T01:20:11.572Z,6.97
2019-04-07T01:22:39.842Z,7.00
2019-04-07T01:25:08.843Z,7.43
2019-04-07T01:27:36.753Z,6.70
2019-04-07T01:30:06.275Z,7.00
2019-04-07T01:32:34.620Z,7.20
2019-04-07T01:35:02.597Z,7.00
2019-04-07T01:37:30.733Z,6.97
2019-04-07T01:39:59.225Z,7.27
2019-04-07T01:42:48.798Z,6.80
2019-04-07T01:45:42.300Z,6.80
2019-04-07T01:48:18.368Z,7.43
2019-04-07T01:50:59.916Z,7.57
2019-04-07T01:53:59.838Z,7.10
2019-04-07T01:56:45.155Z,7.13
2019-04-07T01:59:31.074Z,7.43
2019-04-07T02:02:11.064Z,7.80
2019-04-07T02:04:55.509Z,7.63
2019-04-07T02:07:58.037Z,7.37
2019-04-07T02:10:46.974Z,8.37
2019-04-07T02:13:40.510Z,8.07
2019-04-07T02:16:34.434Z,7.50
2019-04-07T02:19:27.937Z,7.67
2019-04-07T02:22:08.471Z,7.73
2019-04-07T02:24:56.439Z,8.00
2019-04-07T02:27:30.666Z,7.63
2019-04-07T02:30:37.322Z,8.13
2019-04-07T02:33:22.498Z,7.93
2019-04-07T02:36:29.185Z,7.57
2019-04-07T02:39:15.168Z,7.77
2019-04-07T02:41:52.352Z,8.03
2019-04-07T02:44:48.314Z,7.70
2019-04-07T02:47:31.341Z,8.10
2019-04-07T02:50:07.099Z,8.27
2019-04-07T02:53:10.936Z,8.13
2019-04-07T02:56:02.016Z,7.70
2019-04-07T02:58:43.068Z,8.20
2019-04-07T03:01:22.538Z,8.20
2019-04-07T03:04:19.026Z,7.60
2019-04-07T03:07:15.609Z,8.47
2019-04-07T03:09:53.444Z,7.80
2019-04-07T03:12:41.414Z,7.73
2019-04-07T03:15:27.330Z,7.87
2019-04-07T03:18:17.652Z,8.40
2019-04-07T03:21:02.396Z,7.80
2019-04-07T03:23:51.194Z,7.27
2019-04-07T03:26:38.823Z,8.00
2019-04-07T03:29:31.847Z,7.90
2019-04-07T03:32:24.603Z,7.63
2019-04-07T03:35:12.146Z,7.23
2019-04-07T03:37:54.908Z,7.60
2019-04-07T03:40:34.140Z,8.10
2019-04-07T03:43:19.653Z,8.07
2019-04-07T03:46:01.864Z,7.60
2019-04-07T03:48:52.272Z,7.57
2019-04-07T03:51:39.381Z,8.00
2019-04-07T03:54:45.146Z,8.17
2019-04-07T03:57:31.161Z,7.77
2019-04-07T04:00:36.908Z,8.00
2019-04-07T04:03:15.775Z,8.17
2019-04-07T04:06:12.785Z,8.40
2019-04-07T04:08:47.658Z,7.80
2019-04-07T04:11:25.456Z,7.83
2019-04-07T04:14:13.394Z,8.13
2019-04-07T04:16:44.538Z,8.43
2019-04-07T04:19:12.986Z,8.57
2019-04-07T04:21:40.909Z,8.20
2019-04-07T04:24:08.871Z,8.23
2019-04-07T04:26:37.885Z,8.70
2019-04-07T04:29:06.049Z,8.27
2019-04-07T04:31:34.059Z,8.23
2019-04-07T04:34:02.009Z,8.73
2019-04-07T04:36:29.904Z,8.77
2019-04-07T04:38:57.995Z,7.80
2019-04-07T04:41:25.916Z,8.00
2019-04-07T04:43:54.652Z,8.80
2019-04-07T04:46:22.617Z,8.17
2019-04-07T04:48:51.362Z,7.97
2019-04-07T04:51:19.732Z,8.20
2019-04-07T04:53:47.786Z,7.93
2019-04-07T04:56:16.730Z,7.97
2019-04-07T04:58:45.681Z,8.63
2019-04-07T05:01:13.680Z,8.40
2019-04-07T05:03:41.799Z,8.50
2019-04-07T05:06:10.252Z,8.60
2019-04-07T05:08:39.147Z,8.40
2019-04-07T05:11:07.127Z,8.30
2019-04-07T05:13:35.717Z,8.30
2019-04-07T05:16:03.796Z,8.90
2019-04-07T05:18:32.377Z,8.33
2019-04-07T05:21:00.557Z,8.93
2019-04-07T05:23:28.556Z,8.77
2019-04-07T05:25:56.464Z,8.83
2019-04-07T05:28:24.488Z,8.00
2019-04-07T05:30:52.387Z,8.70
2019-04-07T05:33:20.223Z,9.00
2019-04-07T05:35:48.365Z,8.57
2019-04-07T05:38:16.313Z,8.67
2019-04-07T05:40:44.843Z,9.17
2019-04-07T05:43:12.797Z,8.50
2019-04-07T05:45:41.091Z,9.37
2019-04-07T05:48:09.770Z,9.37
2019-04-07T05:50:38.568Z,8.57
2019-04-07T05:53:10.774Z,8.63
2019-04-07T05:55:36.290Z,9.13
2019-04-07T05:58:07.031Z,9.30
2019-04-07T06:00:34.263Z,9.87
2019-04-07T06:03:06.579Z,9.43
2019-04-07T06:05:32.094Z,8.80
2019-04-07T06:08:06.310Z,8.93
2019-04-07T06:10:29.987Z,9.73
2019-04-07T06:12:58.481Z,9.60
2019-04-07T06:15:26.395Z,9.37
2019-04-07T06:17:58.783Z,9.87
2019-04-07T06:20:24.744Z,9.50
2019-04-07T06:22:53.717Z,9.27
2019-04-07T06:25:22.392Z,9.90
2019-04-07T06:27:51.645Z,10.37
2019-04-07T06:30:20.225Z,10.50
2019-04-07T06:32:48.123Z,10.70
2019-04-07T06:35:15.973Z,11.20
2019-04-07T06:37:43.989Z,10.63
2019-04-07T06:40:12.340Z,10.43
2019-04-07T06:42:40.593Z,11.00
2019-04-07T06:45:10.801Z,11.50
2019-04-07T06:47:50.828Z,11.30
2019-04-07T06:50:47.385Z,10.60
2019-04-07T06:53:40.302Z,11.23
2019-04-07T06:56:14.321Z,11.17
2019-04-07T06:59:17.592Z,11.53
2019-04-07T07:02:04.276Z,12.20
2019-04-07T07:05:11.307Z,11.77
2019-04-07T07:08:02.511Z,11.53
2019-04-07T07:10:50.545Z,12.40
2019-04-07T07:13:43.099Z,11.63
2019-04-07T07:16:30.115Z,11.13
2019-04-07T07:19:16.186Z,11.03
2019-04-07T07:22:12.591Z,11.80
2019-04-07T07:24:36.941Z,10.60
2019-04-07T07:27:08.366Z,11.67
2019-04-07T07:29:36.112Z,11.67
2019-04-07T07:32:04.930Z,11.20
2019-04-07T07:34:33.917Z,12.03
2019-04-07T07:37:01.893Z,11.83
2019-04-07T07:39:30.510Z,11.30
2019-04-07T07:41:59.348Z,11.37
2019-04-07T07:44:27.793Z,12.37
2019-04-07T07:46:55.683Z,12.03
2019-04-07T07:49:23.780Z,11.47
2019-04-07T07:51:51.785Z,11.73
2019-04-07T07:54:19.760Z,11.93
2019-04-07T07:56:50.177Z,12.33
2019-04-07T07:59:17.829Z,11.57
2019-04-07T08:01:47.076Z,11.33
2019-04-07T08:04:16.149Z,11.87
2019-04-07T08:06:44.712Z,10.87
2019-04-07T08:09:15.152Z,11.73
2019-04-07T08:11:42.451Z,11.90
2019-04-07T08:14:14.445Z,13.23
2019-04-07T08:16:40.093Z,11.60
2019-04-07T08:19:09.382Z,11.73
2019-04-07T08:21:38.081Z,11.77
2019-04-07T08:24:06.769Z,12.50
2019-04-07T08:26:35.135Z,11.73
2019-04-07T08:29:05.695Z,11.97
2019-04-07T08:31:35.378Z,12.93
2019-04-07T08:34:03.764Z,12.30
2019-04-07T08:36:32.667Z,12.23
2019-04-07T08:39:00.989Z,12.63
2019-04-07T08:41:29.014Z,12.23
2019-04-07T08:43:57.862Z,12.37
2019-04-07T08:46:38.670Z,12.20
2019-04-07T08:49:03.039Z,11.67
2019-04-07T08:51:32.511Z,11.80
2019-04-07T08:54:00.980Z,10.87
2019-04-07T08:56:29.099Z,11.73
2019-04-07T08:58:57.015Z,11.93
2019-04-07T09:01:25.192Z,12.00
2019-04-07T09:03:54.563Z,10.63
2019-04-07T09:06:23.192Z,10.57
2019-04-07T09:08:51.115Z,10.40
2019-04-07T09:11:22.413Z,10.83
2019-04-07T09:13:54.835Z,10.10
2019-04-07T09:16:56.154Z,9.97
2019-04-07T09:19:46.951Z,10.20
2019-04-07T09:22:25.395Z,9.13
2019-04-07T09:25:24.932Z,9.53
2019-04-07T09:28:04.175Z,9.07
2019-04-07T09:30:40.884Z,9.07
2019-04-07T09:33:38.119Z,8.80
2019-04-07T09:36:15.908Z,8.27
2019-04-07T09:38:59.995Z,8.07
2019-04-07T09:41:52.644Z,7.30
2019-04-07T09:44:51.795Z,8.00
2019-04-07T09:47:48.682Z,6.67
2019-04-07T09:50:37.491Z,6.60
2019-04-07T09:53:17.957Z,6.00
2019-04-07T09:56:06.636Z,6.20
2019-04-07T09:59:03.507Z,6.23
2019-04-07T10:01:50.951Z,6.47
2019-04-07T10:04:38.557Z,5.93
2019-04-07T10:07:18.363Z,5.90
2019-04-07T10:10:14.498Z,6.10
2019-04-07T10:13:04.062Z,5.57
2019-04-07T10:15:45.383Z,5.20
2019-04-07T10:18:36.737Z,5.70
2019-04-07T10:21:36.936Z,5.47
2019-04-07T10:24:23.530Z,4.53
2019-04-07T10:27:04.712Z,5.10
2019-04-07T10:29:42.814Z,4.83
2019-04-07T10:32:30.855Z,5.40
2019-04-07T10:35:12.521Z,4.93
2019-04-07T10:37:58.222Z,4.40
2019-04-07T10:40:32.313Z,4.80
2019-04-07T10:43:18.512Z,4.63
2019-04-07T10:46:12.418Z,4.80
2019-04-07T10:48:59.141Z,4.97
2019-04-07T10:51:38.299Z,4.33
2019-04-07T10:54:14.187Z,4.17
2019-04-07T10:57:02.202Z,4.20
2019-04-07T10:59:53.302Z,4.27
2019-04-07T11:02:33.961Z,4.00
2019-04-07T11:05:20.571Z,3.80
2019-04-07T11:08:11.675Z,4.30
2019-04-07T11:11:08.147Z,3.93
2019-04-07T11:13:44.031Z,3.40
2019-04-07T11:16:21.774Z,3.23
2019-04-07T11:19:04.478Z,3.37
2019-04-07T11:21:50.496Z,2.83
2019-04-07T11:24:44.025Z,2.87
2019-04-07T11:27:37.644Z,3.07
2019-04-07T11:30:14.511Z,3.20
2019-04-07T11:32:59.516Z,2.87
2019-04-07T11:35:36.849Z,2.83
2019-04-07T11:38:29.590Z,3.20
2019-04-07T11:41:24.135Z,2.87
2019-04-07T11:44:05.356Z,3.20
2019-04-07T11:46:43.247Z,3.00
2019-04-07T11:49:31.268Z,3.07
2019-04-07T11:52:13.614Z,2.77
2019-04-07T11:55:07.505Z,2.60
2019-04-07T11:57:43.324Z,2.53
2019-04-07T12:00:22.774Z,2.60
2019-04-07T12:03:07.202Z,2.50
2019-04-07T12:06:14.217Z,2.50
2019-04-07T12:09:04.972Z,2.67
2019-04-07T12:11:44.081Z,2.30
2019-04-07T12:14:40.535Z,2.30
2019-04-07T12:17:21.852Z,2.27
2019-04-07T12:20:08.263Z,2.40
2019-04-07T12:22:59.310Z,2.60
2019-04-07T12:25:58.985Z,2.50
2019-04-07T12:28:47.640Z,2.77
2019-04-07T12:31:32.155Z,2.57
2019-04-07T12:34:23.393Z,2.70
2019-04-07T12:37:07.573Z,2.40
2019-04-07T12:39:48.765Z,2.37
2019-04-07T12:42:20.469Z,2.23
2019-04-07T12:45:02.443Z,2.30
2019-04-07T12:48:03.171Z,2.70
2019-04-07T12:50:49.886Z,2.30
2019-04-07T12:53:49.019Z,2.50
2019-04-07T12:56:39.168Z,2.50
2019-04-07T12:59:25.264Z,2.17
2019-04-07T13:02:11.476Z,2.63
2019-04-07T13:05:00.522Z,2.47
2019-04-07T13:07:41.516Z,4.47
2019-04-07T13:10:27.990Z,4.40
2019-04-07T13:13:27.881Z,3.60
2019-04-07T13:16:21.021Z,4.53
2019-04-07T13:19:20.999Z,4.30
2019-04-07T13:22:07.927Z,4.37
2019-04-07T13:24:45.520Z,4.27
2019-04-07T13:27:32.639Z,3.77
2019-04-07T13:30:08.452Z,3.73
2019-04-07T13:32:50.451Z,3.53
2019-04-07T13:35:47.645Z,3.20
2019-04-07T13:38:33.922Z,2.80
2019-04-07T13:41:37.168Z,2.60
2019-04-07T13:44:22.855Z,2.60
2019-04-07T13:47:20.492Z,2.40
2019-04-07T13:50:12.783Z,2.10
2019-04-07T13:53:06.694Z,2.07
2019-04-07T13:56:10.016Z,2.30
2019-04-07T13:59:11.274Z,1.90
2019-04-07T14:02:14.256Z,1.90
2019-04-07T14:04:56.178Z,2.20
2019-04-07T14:07:41.073Z,2.37
2019-04-07T14:10:27.454Z,2.27
2019-04-07T14:13:33.802Z,2.80
2019-04-07T14:16:28.291Z,3.23
2019-04-07T14:19:18.917Z,2.73
2019-04-07T14:21:54.547Z,2.57
2019-04-07T14:24:29.887Z,2.10
2019-04-07T14:27:12.150Z,2.03
2019-04-07T14:29:58.592Z,2.40
2019-04-07T14:32:39.779Z,1.93
2019-04-07T14:35:27.116Z,1.87
2019-04-07T14:38:13.619Z,1.97
2019-04-07T14:41:09.996Z,2.37
2019-04-07T14:43:48.649Z,1.80
2019-04-07T14:46:33.751Z,2.10
2019-04-07T14:49:27.298Z,2.33
2019-04-07T14:52:10.963Z,2.50
2019-04-07T14:54:59.777Z,2.80
2019-04-07T14:57:50.177Z,2.30
2019-04-07T15:00:34.908Z,2.53
2019-04-07T15:03:02.849Z,2.40
2019-04-07T15:05:34.140Z,2.90
2019-04-07T15:08:08.616Z,3.00
2019-04-07T15:10:40.880Z,2.70
2019-04-07T15:13:11.950Z,2.50
2019-04-07T15:15:40.042Z,2.53
2019-04-07T15:18:13.615Z,2.30
2019-04-07T15:20:43.090Z,2.70
2019-04-07T15:23:12.153Z,2.53
2019-04-07T15:25:42.228Z,2.13
2019-04-07T15:28:09.905Z,2.10
2019-04-07T15:30:38.404Z,2.63
2019-04-07T15:33:07.214Z,2.27
2019-04-07T15:35:35.518Z,2.30
2019-04-07T15:38:03.829Z,2.10
2019-04-07T15:40:35.597Z,2.40
2019-04-07T15:43:04.740Z,2.20
2019-04-07T15:45:31.566Z,2.33
2019-04-07T15:48:00.705Z,2.53
2019-04-07T15:50:30.170Z,2.30
2019-04-07T15:52:58.436Z,2.20
2019-04-07T15:55:42.462Z,2.50
2019-04-07T15:57:58.197Z,2.37
2019-04-07T16:00:26.088Z,2.47
2019-04-07T16:02:54.860Z,2.40
2019-04-07T16:05:22.835Z,2.67
2019-04-07T16:07:53.127Z,2.37
2019-04-07T16:10:22.838Z,2.50
2019-04-07T16:12:52.835Z,2.67
2019-04-07T16:15:21.124Z,2.87
2019-04-07T16:17:49.157Z,2.80
2019-04-07T16:20:24.774Z,2.57
2019-04-07T16:22:51.418Z,2.57
2019-04-07T16:25:19.620Z,3.30
2019-04-07T16:27:47.710Z,3.00
2019-04-07T16:30:19.239Z,2.70
2019-04-07T16:32:48.107Z,2.80
2019-04-07T16:35:16.724Z,3.00
2019-04-07T16:37:45.719Z,2.83
2019-04-07T16:40:14.280Z,2.93
2019-04-07T16:42:44.520Z,2.67
2019-04-07T16:45:16.472Z,2.77
2019-04-07T16:47:42.211Z,2.63
2019-04-07T16:50:11.079Z,2.73
2019-04-07T16:52:39.811Z,2.80
2019-04-07T16:55:37.777Z,2.93
2019-04-07T16:58:06.386Z,3.17
2019-04-07T17:00:34.478Z,2.97
2019-04-07T17:03:02.711Z,3.47
2019-04-07T17:05:30.636Z,3.10
2019-04-07T17:07:59.436Z,2.73
2019-04-07T17:10:32.442Z,2.83
2019-04-07T17:13:00.827Z,2.77
2019-04-07T17:15:29.624Z,3.00
2019-04-07T17:17:58.664Z,3.43
2019-04-07T17:20:28.457Z,3.30
2019-04-07T17:22:56.866Z,3.20
2019-04-07T17:25:25.567Z,3.53
2019-04-07T17:27:53.482Z,3.07
2019-04-07T17:30:24.330Z,3.60
2019-04-07T17:32:54.376Z,3.43
2019-04-07T17:35:23.252Z,4.20
2019-04-07T17:37:56.582Z,4.17
2019-04-07T17:40:28.861Z,3.77
2019-04-07T17:43:11.891Z,3.53
2019-04-07T17:46:02.292Z,3.70
2019-04-07T17:48:44.917Z,3.97
2019-04-07T17:51:27.557Z,4.10
2019-04-07T17:54:23.947Z,3.63
2019-04-07T17:57:05.463Z,3.50
2019-04-07T18:00:01.788Z,4.00
2019-04-07T18:02:54.830Z,3.60
2019-04-07T18:05:37.579Z,3.50
2019-04-07T18:08:28.339Z,3.70
2019-04-07T18:11:18.628Z,3.43
2019-04-07T18:14:21.194Z,3.63
2019-04-07T18:17:00.920Z,3.67
2019-04-07T18:19:36.425Z,3.47
2019-04-07T18:22:10.861Z,4.13
2019-04-07T18:24:46.155Z,3.80
2019-04-07T18:27:34.142Z,4.07
2019-04-07T18:30:09.811Z,3.63
2019-04-07T18:32:57.625Z,3.70
2019-04-07T18:36:05.116Z,3.70
2019-04-07T18:38:45.035Z,4.10
2019-04-07T18:41:22.356Z,4.13
2019-04-07T18:44:08.942Z,3.60
2019-04-07T18:46:50.801Z,3.80
2019-04-07T18:49:46.772Z,4.07
2019-04-07T18:52:23.012Z,3.60
2019-04-07T18:55:10.984Z,4.00
2019-04-07T18:58:04.461Z,3.53
2019-04-07T19:01:04.275Z,4.33
2019-04-07T19:03:51.176Z,4.17
2019-04-07T19:06:36.913Z,3.93
2019-04-07T19:09:29.200Z,4.00
2019-04-07T19:12:18.967Z,4.50
2019-04-07T19:15:07.936Z,3.97
2019-04-07T19:17:57.826Z,4.43
2019-04-07T19:20:44.031Z,3.47
2019-04-07T19:23:21.576Z,3.87
2019-04-07T19:26:06.968Z,3.80
2019-04-07T19:28:53.916Z,3.70
2019-04-07T19:31:34.461Z,4.17
2019-04-07T19:34:31.823Z,3.60
2019-04-07T19:37:15.598Z,3.60
2019-04-07T19:40:04.376Z,3.50
2019-04-07T19:43:01.667Z,3.97
2019-04-07T19:45:48.969Z,3.50
2019-04-07T19:48:45.407Z,3.37
2019-04-07T19:51:31.905Z,3.83
2019-04-07T19:54:08.833Z,3.37
2019-04-07T19:57:02.807Z,3.37
2019-04-07T19:59:48.581Z,3.67
2019-04-07T20:02:38.999Z,3.57
2019-04-07T20:05:36.538Z,3.90
2019-04-07T20:08:33.803Z,4.30
2019-04-07T20:11:29.598Z,4.10
2019-04-07T20:14:16.040Z,3.77
2019-04-07T20:17:06.270Z,4.95
2019-04-07T20:19:53.996Z,4.40
2019-04-07T20:22:56.045Z,4.07
2019-04-07T20:25:49.006Z,3.90
2019-04-07T20:28:41.974Z,3.97
2019-04-07T20:31:31.835Z,4.07
2019-04-07T20:34:23.769Z,4.20
2019-04-07T20:37:15.084Z,4.50
2019-04-07T20:40:03.451Z,4.63
2019-04-07T20:43:00.413Z,4.30
2019-04-07T20:45:52.183Z,4.50
2019-04-07T20:48:44.188Z,4.57
2019-04-07T20:51:48.037Z,4.50
2019-04-07T20:54:50.970Z,5.07
2019-04-07T20:57:36.541Z,4.80
2019-04-07T21:00:28.998Z,4.83
2019-04-07T21:03:30.148Z,5.10
2019-04-07T21:06:28.179Z,4.87
2019-04-07T21:09:16.073Z,4.50
2019-04-07T21:12:13.224Z,3.97
2019-04-07T21:14:55.046Z,3.93
2019-04-07T21:17:38.015Z,3.90
2019-04-07T21:20:33.020Z,4.23
2019-04-07T21:23:09.218Z,4.93
2019-04-07T21:25:59.248Z,3.87
2019-04-07T21:28:38.035Z,3.90
2019-04-07T21:31:17.536Z,3.93
2019-04-07T21:34:05.275Z,4.10
2019-04-07T21:36:57.265Z,3.97
2019-04-07T21:39:41.888Z,3.93
2019-04-07T21:42:31.711Z,4.23
2019-04-07T21:45:31.614Z,4.47
2019-04-07T21:48:11.792Z,4.57
2019-04-07T21:50:48.232Z,4.37
2019-04-07T21:53:26.574Z,4.63
2019-04-07T21:56:22.173Z,4.00
2019-04-07T21:59:29.275Z,4.17
2019-04-07T22:02:21.908Z,4.30
2019-04-07T22:05:17.784Z,4.17
2019-04-07T22:08:10.963Z,4.00
2019-04-07T22:10:36.793Z,5.10
2019-04-07T22:13:07.074Z,3.97
2019-04-07T22:15:45.896Z,4.37
2019-04-07T22:18:13.150Z,4.07
2019-04-07T22:20:43.232Z,4.13
2019-04-07T22:23:12.989Z,4.13
2019-04-07T22:25:50.426Z,3.87
2019-04-07T22:28:20.679Z,4.20
2019-04-07T22:30:51.145Z,3.87
2019-04-07T22:33:25.227Z,4.30
2019-04-07T22:35:52.008Z,4.53
2019-04-07T22:38:23.414Z,4.20
2019-04-07T22:40:52.964Z,3.87
2019-04-07T22:43:22.952Z,3.70
2019-04-07T22:45:59.077Z,4.30
2019-04-07T22:48:26.716Z,3.57
2019-04-07T22:50:55.891Z,4.10
2019-04-07T22:53:28.422Z,3.40
2019-04-07T22:55:56.940Z,3.30
2019-04-07T22:58:26.532Z,3.67
2019-04-07T23:00:55.993Z,2.93
2019-04-07T23:03:26.040Z,2.77
2019-04-07T23:05:55.616Z,3.33
2019-04-07T23:08:25.143Z,2.70
2019-04-07T23:10:54.692Z,2.40
2019-04-07T23:13:24.123Z,2.10
2019-04-07T23:16:05.972Z,1.90
2019-04-07T23:18:25.235Z,1.77
2019-04-07T23:20:58.087Z,1.33
2019-04-07T23:23:28.123Z,1.30
2019-04-07T23:25:57.777Z,1.30
2019-04-07T23:28:27.314Z,1.37
2019-04-07T23:30:56.965Z,1.20
2019-04-07T23:33:26.439Z,1.30
2019-04-07T23:35:55.967Z,1.00
2019-04-07T23:38:26.090Z,1.40
2019-04-07T23:40:55.708Z,1.10
2019-04-07T23:43:25.236Z,1.17
2019-04-07T23:45:54.774Z,1.20
2019-04-07T23:48:24.333Z,1.20
2019-04-07T23:50:54.080Z,1.20
2019-04-07T23:54:00.173Z,1.20
2019-04-07T23:56:29.656Z,1.37
2019-04-07T23:58:59.142Z,1.50
